This is the latest recevied weather packets stored in our database for station/object KO4RJX-10. If no packets are shown the sender has not sent any weather packets the latest 10 day(s).
| Time | Temp. | Humidity | Pressure | Rain* | Wind** | Luminosity | Snow |
|---|---|---|---|---|---|---|---|
| 1777606716 | 15.56° C | 66% | 1005.1 hPa | 6.35 mm | - | - | - |
| 1777604183 | 13.89° C | 89% | 1005.1 hPa | 6.35 mm | - | - | - |
| 1777594183 | 17.78° C | 72% | 1003 hPa | 6.35 mm | - | - | - |
| 1777592984 | 18.33° C | 67% | 1002.7 hPa | 6.35 mm | - | - | - |
| 1777591783 | 20° C | 61% | 1002.4 hPa | 6.35 mm | - | - | - |
| 1777589383 | 22.22° C | 51% | 1002 hPa | 6.35 mm | - | - | - |
| 1777584983 | 22.22° C | 42% | 1001.7 hPa | 6.35 mm | - | - | - |
| 1777582983 | 21.67° C | 45% | 1002 hPa | 6.35 mm | - | - | - |
| 1777579383 | 22.22° C | 45% | 1002 hPa | 6.35 mm | - | - | - |
| 1777578185 | 22.78° C | 41% | 1002 hPa | 6.35 mm | - | - | - |
| 1777577783 | 22.22° C | 40% | 1002 hPa | 6.35 mm | - | - | - |
| 1777576183 | 22.22° C | 43% | 1002 hPa | 6.35 mm | - | - | - |
| 1777572183 | 21.11° C | 54% | 1002 hPa | 6.35 mm | - | - | - |
| 1777571915 | 20.56° C | 57% | 1002 hPa | 6.35 mm | - | - | - |
| 1777570583 | 20° C | 56% | 1002.4 hPa | 6.35 mm | - | - | - |
| 1777569783 | 20° C | 56% | 1002.4 hPa | 6.35 mm | - | - | - |
| 1777569514 | 20° C | 58% | 1002.7 hPa | 6.35 mm | - | - | - |
| 1777569115 | 19.44° C | 57% | 1002.7 hPa | 6.35 mm | - | - | - |
| 1777567383 | 17.78° C | 70% | 1003 hPa | 6.35 mm | - | - | - |
| 1777566984 | 17.78° C | 72% | 1003 hPa | 6.35 mm | - | - | - |
| 1777566183 | 17.78° C | 71% | 1003.4 hPa | 6.35 mm | - | - | - |
| 1777560583 | 18.33° C | 67% | 1003.7 hPa | 6.1 mm | - | - | - |
| 1777557783 | 17.78° C | 71% | 1002.4 hPa | 6.1 mm | - | - | - |
| 1777556315 | 16.67° C | 75% | 1001.4 hPa | 6.1 mm | - | - | - |
| 1777555784 | 16.67° C | 74% | 1001.7 hPa | 6.1 mm | - | - | - |
* Rain since midnight (hover to see other rain measurements)
** Current wind speed in m/s (hover to see current wind gust speed)